Time;durP1;ratioP1;P1;durP2;ratioP2;P2;SDS_P1;SDS_P2;PMS_P1;PMS_P2;Temp;Humidity;BMP_temperature;BMP_pressure;BME280_temperature;BME280_humidity;BME280_pressure;Samples;Min_cycle;Max_cycle;Signal;HPM_P1;HPM_P2
2022/04/25 00:02:38;;;;;;;10.27;7.80;;;9.60;96.90;;;;;;10261080;28;20272;-92
2022/04/25 00:07:41;;;;;;;8.50;6.53;;;9.50;99.10;;;;;;10291455;28;20678;-92
2022/04/25 00:12:44;;;;;;;11.63;7.07;;;8.90;97.10;;;;;;10256688;28;20265;-91
2022/04/25 00:17:46;;;;;;;12.07;6.43;;;9.60;99.90;;;;;;10293101;28;20239;-93
2022/04/25 00:22:49;;;;;;;9.03;5.70;;;8.60;97.90;;;;;;10293342;28;20636;-91
2022/04/25 00:27:51;;;;;;;12.57;6.97;;;9.40;98.50;;;;;;10274711;28;20679;-92
2022/04/25 00:32:55;;;;;;;10.77;6.20;;;8.40;99.90;;;;;;10261491;28;20211;-92
2022/04/25 00:37:57;;;;;;;6.53;5.17;;;8.60;99.90;;;;;;10243405;29;20329;-92
2022/04/25 00:43:00;;;;;;;9.97;6.10;;;9.00;97.90;;;;;;10232177;29;20251;-92
2022/04/25 00:48:03;;;;;;;8.40;5.33;;;8.60;99.90;;;;;;10234602;29;20258;-92
2022/04/25 00:53:06;;;;;;;8.50;5.80;;;8.60;99.90;;;;;;10252565;29;20254;-92
2022/04/25 00:58:09;;;;;;;10.30;5.27;;;9.10;99.90;;;;;;10239273;29;20270;-91
2022/04/25 01:03:13;;;;;;;9.27;5.70;;;9.40;99.90;;;;;;10250867;29;20250;-91
2022/04/25 01:08:16;;;;;;;8.47;6.37;;;9.30;98.90;;;;;;10251218;29;20247;-92
2022/04/25 01:13:18;;;;;;;8.93;5.90;;;8.50;99.90;;;;;;10251302;29;20250;-91
2022/04/25 01:18:21;;;;;;;9.83;7.23;;;9.00;99.90;;;;;;10233392;29;20262;-91
2022/04/25 01:28:46;;;;;;;11.33;5.70;;;8.70;99.90;;;;;;10250335;29;20305;-92
2022/04/25 01:33:48;;;;;;;8.40;6.20;;;8.50;99.90;;;;;;10244564;29;20298;-91
2022/04/25 01:38:54;;;;;;;9.87;6.23;;;8.40;99.90;;;;;;10254162;28;20261;-91
2022/04/25 01:43:57;;;;;;;10.17;6.90;;;8.20;99.90;;;;;;10268544;28;20242;-90
2022/04/25 01:48:59;;;;;;;8.33;6.30;;;8.30;99.90;;;;;;10255960;28;20714;-91
2022/04/25 01:54:02;;;;;;;9.63;7.67;;;8.20;99.90;;;;;;10255183;28;20289;-92
2022/04/25 01:59:04;;;;;;;9.97;6.97;;;8.50;99.90;;;;;;10270954;28;20316;-91
2022/04/25 02:04:07;;;;;;;10.13;7.50;;;8.10;99.90;;;;;;10282541;28;20245;-92
2022/04/25 02:09:09;;;;;;;9.27;7.97;;;8.00;99.90;;;;;;10273110;28;20598;-91
2022/04/25 02:14:12;;;;;;;10.20;7.40;;;7.90;99.90;;;;;;10291657;28;20210;-96
2022/04/25 02:19:14;;;;;;;8.10;6.80;;;7.60;99.90;;;;;;10258577;28;20261;-92
2022/04/25 02:24:17;;;;;;;7.70;6.00;;;8.20;99.90;;;;;;10248666;28;20691;-93
2022/04/25 02:29:20;;;;;;;9.67;7.43;;;8.70;99.90;;;;;;10232278;29;20269;-91
2022/04/25 02:34:23;;;;;;;7.60;6.23;;;7.80;99.90;;;;;;10256727;28;20276;-92
2022/04/25 02:39:25;;;;;;;12.83;8.23;;;8.10;99.90;;;;;;10286262;28;20740;-91
2022/04/25 02:44:28;;;;;;;12.10;8.10;;;7.80;99.90;;;;;;10287226;28;20260;-91
2022/04/25 02:49:31;;;;;;;14.67;7.70;;;8.30;99.90;;;;;;10287671;28;20249;-92
2022/04/25 02:54:33;;;;;;;12.33;7.40;;;8.80;99.90;;;;;;10270183;28;20213;-91
2022/04/25 02:59:36;;;;;;;15.17;9.43;;;8.60;99.90;;;;;;10270635;28;20301;-92
2022/04/25 03:04:39;;;;;;;16.77;8.33;;;7.30;99.90;;;;;;10245368;28;20246;-92
2022/04/25 03:09:41;;;;;;;16.53;9.60;;;7.10;99.90;;;;;;10262535;28;20209;-92
2022/04/25 03:14:45;;;;;;;13.03;8.77;;;7.20;99.90;;;;;;10269680;28;20240;-92
2022/04/25 03:19:48;;;;;;;16.97;9.03;;;7.60;99.90;;;;;;10287152;28;20592;-92
2022/04/25 03:24:50;;;;;;;10.37;8.03;;;6.90;99.90;;;;;;10287379;28;20250;-93
2022/04/25 03:29:52;;;;;;;11.07;7.60;;;7.30;99.90;;;;;;10252988;28;20317;-92
2022/04/25 03:34:56;;;;;;;13.77;8.53;;;7.30;99.90;;;;;;10246991;29;20254;-92
2022/04/25 03:39:59;;;;;;;9.70;7.13;;;7.00;99.90;;;;;;10228670;29;20306;-91
2022/04/25 03:45:02;;;;;;;11.20;8.27;;;8.50;99.90;;;;;;10243994;29;20242;-92
2022/04/25 03:50:09;;;;;;;11.23;7.93;;;8.20;99.90;;;;;;10228115;28;20733;-91
2022/04/25 04:00:38;;;;;;;12.57;9.13;;;7.00;99.90;;;;;;10235977;29;20269;-89
2022/04/25 04:05:42;;;;;;;12.27;9.13;;;7.40;99.90;;;;;;10249281;29;20270;-90
2022/04/25 04:10:44;;;;;;;14.60;10.17;;;7.20;99.90;;;;;;10190728;28;20211;-90
2022/04/25 04:15:47;;;;;;;17.33;10.13;;;6.70;99.90;;;;;;10236237;28;20266;-90
2022/04/25 04:20:50;;;;;;;14.37;9.60;;;6.60;99.90;;;;;;10238276;29;20318;-91
2022/04/25 04:25:52;;;;;;;12.67;9.00;;;7.00;99.90;;;;;;10221666;29;20254;-91
2022/04/25 04:30:55;;;;;;;14.27;9.87;;;6.70;99.90;;;;;;10236180;29;20242;-90
2022/04/25 04:36:19;;;;;;;15.37;9.67;;;6.90;99.90;;;;;;10221532;29;20298;-91
2022/04/25 04:41:20;;;;;;;8.63;7.53;;;6.70;99.90;;;;;;10257907;28;20262;-90
2022/04/25 04:46:23;;;;;;;11.83;8.70;;;6.80;99.90;;;;;;10251580;28;20262;-90
2022/04/25 04:51:26;;;;;;;8.07;5.57;;;7.10;99.90;;;;;;10218392;29;20250;-90
2022/04/25 04:56:32;;;;;;;10.17;7.57;;;7.40;99.90;;;;;;10281170;28;20229;-91
2022/04/25 05:01:35;;;;;;;9.77;7.30;;;7.70;99.90;;;;;;10290391;28;20257;-90
2022/04/25 05:06:38;;;;;;;9.80;7.73;;;7.80;99.90;;;;;;10272848;28;20241;-91
2022/04/25 05:11:40;;;;;;;11.43;7.40;;;7.70;99.90;;;;;;10274015;28;20245;-91
2022/04/25 05:16:42;;;;;;;10.27;8.00;;;7.60;99.90;;;;;;10285324;28;20277;-90
2022/04/25 05:21:45;;;;;;;8.87;6.37;;;7.00;99.90;;;;;;10286803;28;20711;-90
2022/04/25 05:26:48;;;;;;;13.80;7.53;;;7.30;99.90;;;;;;10287156;28;20238;-90
2022/04/25 05:31:51;;;;;;;14.37;7.83;;;7.40;99.90;;;;;;10265526;28;20286;-90
2022/04/25 05:37:05;;;;;;;8.93;6.10;;;7.20;99.90;;;;;;10232581;28;20249;-90
2022/04/25 05:42:08;;;;;;;10.47;5.87;;;8.00;99.90;;;;;;10245281;29;20258;-91
2022/04/25 05:47:10;;;;;;;8.77;5.40;;;8.00;99.90;;;;;;10224114;29;20243;-90
2022/04/25 05:52:13;;;;;;;10.10;5.30;;;8.10;99.90;;;;;;10219893;28;20246;-90
2022/04/25 05:57:22;;;;;;;11.40;5.67;;;8.20;99.90;;;;;;10203698;29;20640;-91
2022/04/25 06:02:24;;;;;;;8.77;6.00;;;7.60;99.90;;;;;;10245140;29;20261;-91
2022/04/25 06:07:27;;;;;;;9.03;5.67;;;9.10;99.90;;;;;;10219333;29;20243;-90
2022/04/25 06:12:30;;;;;;;10.37;6.67;;;7.70;99.90;;;;;;10209734;29;20238;-90
2022/04/25 06:17:32;;;;;;;9.83;6.20;;;8.00;99.90;;;;;;10247031;29;20666;-90
2022/04/25 06:22:36;;;;;;;9.63;6.10;;;8.10;99.90;;;;;;10247444;29;20265;-90
2022/04/25 06:27:38;;;;;;;6.77;5.60;;;8.30;99.90;;;;;;10208309;28;20273;-90
2022/04/25 06:32:41;;;;;;;9.33;5.43;;;8.60;99.90;;;;;;10204876;29;20243;-90
2022/04/25 06:37:43;;;;;;;9.07;5.57;;;9.50;99.90;;;;;;10190600;29;20756;-90
2022/04/25 06:42:47;;;;;;;7.83;6.00;;;8.90;99.90;;;;;;10238360;29;20301;-90
2022/04/25 06:47:50;;;;;;;10.67;5.90;;;8.60;99.90;;;;;;10229919;28;20675;-90
2022/04/25 06:52:53;;;;;;;10.50;6.30;;;8.90;99.90;;;;;;10209937;29;20710;-91
2022/04/25 06:57:55;;;;;;;7.47;5.63;;;9.00;99.90;;;;;;10214901;29;20779;-90
2022/04/25 07:02:58;;;;;;;6.63;5.50;;;9.40;99.90;;;;;;10207241;29;20259;-90
2022/04/25 07:08:01;;;;;;;7.90;4.97;;;9.60;99.90;;;;;;10206672;29;20633;-90
2022/04/25 07:13:03;;;;;;;10.77;5.90;;;10.10;99.90;;;;;;10191518;29;20240;-92
2022/04/25 07:18:06;;;;;;;8.00;6.20;;;9.70;99.90;;;;;;10226170;29;20218;-91
2022/04/25 07:33:50;;;;;;;7.57;5.03;;;10.10;99.90;;;;;;10207316;29;20287;-90
2022/04/25 07:38:54;;;;;;;7.70;5.73;;;9.90;99.90;;;;;;10259942;28;20273;-90
2022/04/25 07:43:58;;;;;;;9.40;5.87;;;9.80;99.90;;;;;;10256471;28;20258;-90
2022/04/25 07:49:00;;;;;;;6.23;4.67;;;9.70;99.90;;;;;;10273381;28;20245;-90
2022/04/25 07:54:04;;;;;;;6.67;5.03;;;9.00;99.90;;;;;;10221484;29;20703;-90
2022/04/25 07:59:07;;;;;;;7.03;4.30;;;10.50;99.90;;;;;;10236958;29;20610;-91
2022/04/25 08:04:09;;;;;;;14.70;5.47;;;8.90;99.90;;;;;;10271993;28;20661;-90
2022/04/25 08:09:12;;;;;;;5.43;4.17;;;9.80;99.90;;;;;;10291887;28;20300;-90
2022/04/25 08:19:37;;;;;;;6.93;4.50;;;10.00;99.90;;;;;;10223466;28;20577;-90
2022/04/25 08:24:39;;;;;;;5.13;4.27;;;9.50;99.50;;;;;;10236630;28;20278;-91
2022/04/25 08:29:42;;;;;;;8.20;4.80;;;10.10;99.90;;;;;;10232748;28;20578;-89
2022/04/25 08:34:44;;;;;;;8.07;4.27;;;9.10;99.90;;;;;;10281910;28;20653;-89
2022/04/25 08:39:47;;;;;;;4.43;3.77;;;10.00;99.60;;;;;;10292442;28;20631;-89
2022/04/25 08:44:52;;;;;;;4.13;3.07;;;10.30;99.90;;;;;;10274261;28;20270;-89
2022/04/25 08:49:58;;;;;;;10.07;4.93;;;10.80;99.70;;;;;;10264496;28;20248;-89
2022/04/25 08:55:02;;;;;;;6.07;4.07;;;10.40;98.60;;;;;;10250346;28;20243;-89
2022/04/25 09:00:06;;;;;;;4.50;4.10;;;9.90;99.80;;;;;;10290705;28;20301;-89
2022/04/25 09:05:09;;;;;;;7.33;4.50;;;9.40;99.90;;;;;;10281728;28;20238;-89
2022/04/25 09:10:15;;;;;;;6.83;4.13;;;9.00;99.90;;;;;;10252246;28;20262;-89
2022/04/25 09:15:20;;;;;;;4.93;3.93;;;9.90;98.40;;;;;;10239906;28;20300;-89
2022/04/25 09:20:28;;;;;;;7.53;4.07;;;10.20;99.90;;;;;;10238153;29;20302;-89
2022/04/25 09:25:31;;;;;;;4.67;3.60;;;10.70;96.60;;;;;;10250526;29;20234;-89
2022/04/25 09:30:56;;;;;;;3.30;2.93;;;10.80;98.30;;;;;;10243438;28;20244;-89
2022/04/25 09:35:59;;;;;;;6.13;3.17;;;12.60;93.10;;;;;;10289102;28;20320;-89
2022/04/25 09:41:04;;;;;;;2.63;2.43;;;11.30;94.50;;;;;;10266366;28;20266;-89
2022/04/25 09:46:17;;;;;;;3.83;2.57;;;12.80;92.80;;;;;;10272410;28;20271;-89
2022/04/25 09:51:20;;;;;;;5.70;2.53;;;12.20;92.70;;;;;;10280719;28;20621;-89
2022/04/25 09:56:31;;;;;;;2.77;2.37;;;12.00;93.70;;;;;;10232845;28;20626;-89
2022/04/25 10:01:35;;;;;;;3.43;2.10;;;11.40;91.70;;;;;;10279295;28;20268;-89
2022/04/25 10:06:38;;;;;;;6.57;2.60;;;12.30;90.10;;;;;;10270747;28;20217;-89
2022/04/25 10:11:42;;;;;;;3.53;2.73;;;11.10;92.40;;;;;;10272260;28;20245;-89
2022/04/25 10:16:46;;;;;;;4.10;2.30;;;12.00;90.20;;;;;;10272187;28;20248;-88
2022/04/25 10:21:54;;;;;;;4.97;3.67;;;10.90;90.90;;;;;;10241451;29;20314;-88
2022/04/25 10:27:02;;;;;;;4.43;2.83;;;10.40;92.80;;;;;;10252461;28;20666;-88
2022/04/25 10:32:08;;;;;;;4.00;3.13;;;10.90;92.50;;;;;;10267586;28;20240;-89
2022/04/25 10:37:37;;;;;;;3.30;2.80;;;10.60;92.60;;;;;;10244055;29;20291;-88
2022/04/25 10:49:10;;;;;;;4.70;3.43;;;10.60;91.70;;;;;;10230176;29;20243;-89
2022/04/25 10:54:14;;;;;;;4.60;3.17;;;10.90;92.50;;;;;;10222854;29;20291;-88
2022/04/25 10:59:27;;;;;;;4.97;3.27;;;11.40;94.70;;;;;;10210096;28;20247;-88
2022/04/25 11:04:30;;;;;;;4.93;3.33;;;11.10;91.10;;;;;;10228142;29;20753;-88
2022/04/25 11:09:40;;;;;;;3.60;3.27;;;10.50;90.80;;;;;;10236680;29;20238;-88
2022/04/25 11:15:00;;;;;;;3.37;2.73;;;11.10;92.10;;;;;;10229279;29;20298;-88
2022/04/25 11:20:04;;;;;;;4.23;2.80;;;10.80;91.80;;;;;;10232285;29;20703;-88
2022/04/25 11:25:25;;;;;;;7.57;3.77;;;10.50;94.60;;;;;;10231782;28;20734;-89
2022/04/25 11:30:28;;;;;;;3.33;2.30;;;11.00;92.50;;;;;;10255341;29;20266;-89
2022/04/25 11:35:30;;;;;;;6.47;4.73;;;11.00;95.80;;;;;;10222325;28;20292;-89
2022/04/25 11:40:34;;;;;;;5.17;4.07;;;10.70;92.10;;;;;;10242994;29;20298;-89
2022/04/25 11:45:36;;;;;;;8.17;4.10;;;10.60;92.40;;;;;;10236336;29;20236;-89
2022/04/25 11:50:39;;;;;;;4.47;3.70;;;11.10;93.80;;;;;;10232663;29;20244;-89
2022/04/25 11:55:41;;;;;;;3.23;2.63;;;11.20;91.60;;;;;;10238783;29;20232;-88
2022/04/25 12:00:44;;;;;;;5.37;3.33;;;11.40;95.20;;;;;;10223107;29;20313;-89
2022/04/25 12:05:46;;;;;;;8.40;3.97;;;11.20;91.20;;;;;;10212706;29;20316;-89
2022/04/25 12:16:18;;;;;;;4.30;3.03;;;10.80;92.10;;;;;;10213847;29;20240;-89
2022/04/25 12:21:21;;;;;;;4.03;2.60;;;11.40;93.90;;;;;;10251783;29;20249;-88
2022/04/25 12:26:27;;;;;;;5.40;3.37;;;12.60;93.10;;;;;;10252603;29;20238;-89
2022/04/25 12:31:36;;;;;;;6.10;3.37;;;12.60;89.60;;;;;;10250272;28;20279;-88
2022/04/25 12:36:56;;;;;;;5.63;3.20;;;11.70;90.30;;;;;;10255342;28;20222;-91
2022/04/25 12:42:00;;;;;;;6.00;2.97;;;12.10;88.90;;;;;;10250657;29;20258;-91
2022/04/25 12:47:08;;;;;;;6.10;3.47;;;11.90;91.00;;;;;;10250962;29;20580;-91
2022/04/25 12:52:12;;;;;;;11.37;3.53;;;11.80;88.80;;;;;;10251148;29;20246;-91
2022/04/25 12:57:24;;;;;;;6.90;3.67;;;12.10;89.50;;;;;;10252679;29;20293;-91
2022/04/25 13:02:32;;;;;;;5.33;3.67;;;11.80;88.10;;;;;;10216621;29;20329;-91
2022/04/25 13:07:38;;;;;;;5.93;3.60;;;11.70;90.80;;;;;;10193412;29;20688;-91
2022/04/25 13:12:43;;;;;;;9.90;3.50;;;12.20;90.90;;;;;;10210913;29;20225;-91
2022/04/25 13:17:48;;;;;;;16.83;4.47;;;12.20;90.20;;;;;;10210863;29;20253;-90
2022/04/25 13:22:51;;;;;;;10.33;3.63;;;11.90;90.30;;;;;;10194700;29;20289;-91
2022/04/25 13:27:54;;;;;;;4.73;3.80;;;11.80;91.00;;;;;;10210491;29;20278;-91
2022/04/25 13:32:56;;;;;;;6.07;3.73;;;11.90;87.30;;;;;;10226942;29;20209;-91
2022/04/25 13:38:00;;;;;;;6.73;4.00;;;12.00;90.30;;;;;;10203117;29;20601;-92
2022/04/25 13:43:04;;;;;;;9.50;5.03;;;11.80;87.60;;;;;;10233881;29;20713;-91
2022/04/25 13:48:09;;;;;;;13.97;5.70;;;12.10;89.80;;;;;;10232368;28;20209;-91
2022/04/25 13:53:12;;;;;;;6.10;4.07;;;12.60;87.60;;;;;;10250198;29;20706;-92
2022/04/25 13:58:15;;;;;;;6.10;3.37;;;12.60;86.50;;;;;;10249027;28;20220;-91
2022/04/25 14:03:18;;;;;;;10.20;5.03;;;12.20;87.20;;;;;;10248646;29;20340;-91
2022/04/25 14:08:21;;;;;;;10.43;4.43;;;12.00;89.10;;;;;;10248294;28;20759;-91
2022/04/25 14:13:30;;;;;;;8.87;4.33;;;11.50;89.00;;;;;;10247062;28;20243;-83
2022/04/25 14:18:33;;;;;;;7.77;5.87;;;11.20;90.20;;;;;;10245995;29;20285;-84
2022/04/25 14:23:35;;;;;;;24.63;8.70;;;10.80;91.90;;;;;;10247256;29;20316;-84
2022/04/25 14:28:38;;;;;;;14.63;6.63;;;10.60;92.30;;;;;;10249328;29;20296;-84
2022/04/25 14:34:00;;;;;;;12.33;6.33;;;10.60;91.70;;;;;;10234804;29;20674;-84
2022/04/25 14:39:03;;;;;;;11.17;5.40;;;10.60;92.30;;;;;;10248881;28;20288;-84
2022/04/25 14:44:05;;;;;;;10.77;6.53;;;10.50;92.30;;;;;;10271463;28;20308;-84
2022/04/25 14:49:08;;;;;;;12.87;6.50;;;10.40;93.30;;;;;;10286722;28;20253;-84
2022/04/25 14:54:20;;;;;;;7.80;5.83;;;10.30;93.60;;;;;;10270938;28;20675;-84
2022/04/25 14:59:23;;;;;;;9.80;5.30;;;10.30;93.40;;;;;;10270379;28;20237;-84
2022/04/25 15:04:26;;;;;;;7.80;5.43;;;10.40;93.60;;;;;;10287512;28;20770;-84
2022/04/25 15:09:29;;;;;;;10.23;6.50;;;10.50;93.50;;;;;;10270093;28;20237;-84
2022/04/25 15:14:32;;;;;;;11.47;6.80;;;10.40;93.90;;;;;;10282408;28;20229;-84
2022/04/25 15:19:37;;;;;;;16.53;6.77;;;10.40;93.70;;;;;;10271032;28;20241;-84
2022/04/25 15:24:40;;;;;;;13.27;6.50;;;10.20;94.30;;;;;;10261750;28;20324;-83
2022/04/25 15:29:44;;;;;;;14.00;7.70;;;10.20;94.40;;;;;;10235181;28;20230;-84
2022/04/25 15:34:47;;;;;;;14.63;5.90;;;10.20;94.70;;;;;;10258515;28;20245;-84
2022/04/25 15:39:50;;;;;;;11.23;6.50;;;10.40;94.80;;;;;;10286352;28;20326;-85
2022/04/25 15:44:53;;;;;;;9.80;6.53;;;10.50;96.80;;;;;;10286621;28;20715;-85
2022/04/25 15:49:55;;;;;;;8.83;5.63;;;11.20;97.20;;;;;;10269509;28;20269;-85
2022/04/25 16:00:24;;;;;;;9.73;6.40;;;11.40;99.90;;;;;;10264773;28;20241;-85
2022/04/25 16:05:27;;;;;;;5.53;4.43;;;11.10;94.20;;;;;;10271202;28;20310;-85
2022/04/25 16:10:29;;;;;;;7.23;5.50;;;11.10;98.30;;;;;;10287998;28;20279;-85
2022/04/25 16:15:32;;;;;;;10.50;5.30;;;10.90;94.90;;;;;;10294051;28;20271;-85
2022/04/25 16:20:36;;;;;;;18.23;9.70;;;11.30;93.20;;;;;;10265676;28;20272;-85
2022/04/25 16:25:40;;;;;;;5.40;3.40;;;11.80;93.10;;;;;;10264517;28;20264;-85
2022/04/25 16:30:43;;;;;;;11.80;6.87;;;12.00;98.80;;;;;;10272519;28;20241;-85
2022/04/25 16:35:46;;;;;;;6.90;4.47;;;12.50;94.50;;;;;;10291393;28;20292;-85
2022/04/25 16:40:48;;;;;;;4.27;3.33;;;11.90;97.10;;;;;;10271509;28;20297;-85
2022/04/25 16:45:50;;;;;;;6.97;4.37;;;12.90;95.40;;;;;;10264442;28;20249;-85
2022/04/25 16:50:54;;;;;;;19.87;9.90;;;12.00;94.70;;;;;;10253037;28;20244;-85
2022/04/25 16:55:56;;;;;;;12.30;6.53;;;11.30;92.70;;;;;;10289740;28;20232;-85
2022/04/25 17:00:59;;;;;;;6.83;6.13;;;11.70;93.50;;;;;;9923588;28;9999861;-84
2022/04/25 17:06:01;;;;;;;3.70;3.13;;;11.40;93.40;;;;;;10225772;29;20288;-90
2022/04/25 17:11:04;;;;;;;11.00;6.30;;;13.00;94.50;;;;;;10254444;29;20281;-90
2022/04/25 17:16:08;;;;;;;16.17;8.47;;;12.20;91.50;;;;;;10247175;28;20619;-82
2022/04/25 17:21:10;;;;;;;32.07;11.50;;;12.40;94.20;;;;;;10249194;28;20249;-83
2022/04/25 17:26:16;;;;;;;15.33;7.53;;;12.30;89.60;;;;;;10222463;28;20632;-83
